Lamaline, Canada
Current Conditions -  °F | °C
As of 4:00 PM on Tuesday 21 Oct 2014 (Local Time) from LFVP Reporting Station
Broken Clouds Broken Clouds  
Wind Chill: 52°   Ceiling: 3300
Heat Index: 52°   Visibility: 6mi
Dew Point: 39°   Wind: 16mph
Humidity: 62%   Direction: 270°W
Pressure: 30.12"   Gusts: NA
Location:  46.87°N, 55.79°W
Report Text: LFVP 211800Z 27014KT 9999 BKN033 11/04 Q1020 NOSIG
Loading
Personal Weather Stations






























Interactive Weather Map
Tropical Storm Tracking
New forecast layout! Learn more

10-Day Weather Forecast

Advertisements
Track Severe Weather on mobile